Time;durP1;ratioP1;P1;durP2;ratioP2;P2;SDS_P1;SDS_P2;PMS_P1;PMS_P2;Temp;Humidity;BMP_temperature;BMP_pressure;BME280_temperature;BME280_humidity;BME280_pressure;Samples;Min_cycle;Max_cycle;Signal;HPM_P1;HPM_P2
2023/09/23 00:00:07;;;;;;;6.18;1.35;;;14.00;61.80;;;;;;5024139;28;1095682;-69
2023/09/23 00:02:38;;;;;;;3.90;1.40;;;13.90;61.60;;;;;;5060150;28;20504;-67
2023/09/23 00:05:09;;;;;;;4.32;1.15;;;13.90;61.70;;;;;;5064882;28;20025;-68
2023/09/23 00:07:36;;;;;;;5.05;1.67;;;13.90;61.70;;;;;;5057927;28;20114;-70
2023/09/23 00:10:05;;;;;;;3.40;1.35;;;13.80;61.60;;;;;;5054735;28;20135;-74
2023/09/23 00:12:32;;;;;;;3.97;1.73;;;13.80;61.70;;;;;;5056801;28;20040;-70
2023/09/23 00:14:58;;;;;;;4.97;1.95;;;13.70;61.60;;;;;;5050341;28;20543;-69
2023/09/23 00:17:23;;;;;;;4.78;1.73;;;13.70;61.70;;;;;;5057991;28;20123;-71
2023/09/23 00:19:49;;;;;;;3.45;1.45;;;13.60;61.60;;;;;;5056392;28;20480;-69
2023/09/23 00:22:15;;;;;;;3.10;1.40;;;13.60;61.70;;;;;;5057796;28;20032;-71
2023/09/23 00:24:41;;;;;;;2.13;1.23;;;13.50;61.50;;;;;;5057258;28;20400;-69
2023/09/23 00:27:07;;;;;;;5.90;1.63;;;13.50;61.60;;;;;;5058677;28;20033;-70
2023/09/23 00:29:34;;;;;;;3.30;1.17;;;13.50;61.70;;;;;;5058135;28;20036;-69
2023/09/23 00:32:00;;;;;;;2.67;1.02;;;13.40;61.50;;;;;;5056764;28;20478;-69
2023/09/23 00:34:26;;;;;;;3.17;1.00;;;13.40;61.70;;;;;;5062432;28;20045;-69
2023/09/23 00:36:52;;;;;;;3.40;1.23;;;13.30;62.10;;;;;;5057309;28;20544;-69
2023/09/23 00:39:18;;;;;;;4.15;1.00;;;13.30;61.50;;;;;;5058653;28;20354;-74
2023/09/23 00:41:44;;;;;;;2.95;1.35;;;13.30;61.60;;;;;;5057413;28;20036;-70
2023/09/23 00:44:12;;;;;;;3.60;1.17;;;13.20;61.50;;;;;;5054312;28;20392;-69
2023/09/23 00:46:38;;;;;;;2.17;1.17;;;13.20;61.50;;;;;;5050356;28;20068;-68
2023/09/23 00:49:07;;;;;;;2.80;1.80;;;13.20;61.60;;;;;;5052394;28;20037;-73
2023/09/23 00:51:33;;;;;;;2.83;1.05;;;13.10;61.50;;;;;;5053541;28;20480;-69
2023/09/23 00:54:01;;;;;;;3.72;0.80;;;13.10;61.50;;;;;;5060355;28;20085;-68
2023/09/23 00:56:30;;;;;;;2.03;1.10;;;13.00;61.40;;;;;;5058887;28;20028;-71
2023/09/23 00:58:58;;;;;;;4.93;0.90;;;13.00;61.40;;;;;;5057000;28;20052;-69
2023/09/23 01:01:24;;;;;;;2.38;1.73;;;13.00;61.50;;;;;;5059486;28;20135;-70
2023/09/23 01:03:50;;;;;;;4.45;1.08;;;12.90;61.30;;;;;;5060819;28;20115;-71
2023/09/23 01:06:18;;;;;;;3.72;0.98;;;12.90;61.40;;;;;;5055849;28;20040;-67
2023/09/23 01:08:46;;;;;;;2.10;1.13;;;12.80;61.40;;;;;;5058236;28;20127;-70
2023/09/23 01:11:13;;;;;;;2.75;1.20;;;12.80;61.40;;;;;;5055165;28;20036;-67
2023/09/23 01:13:42;;;;;;;2.88;1.00;;;12.80;61.40;;;;;;5055512;28;20127;-70
2023/09/23 01:16:11;;;;;;;2.45;1.15;;;12.70;61.30;;;;;;5047743;28;20052;-70
2023/09/23 01:18:38;;;;;;;2.47;1.30;;;12.70;61.40;;;;;;5056254;28;20064;-70
2023/09/23 01:21:07;;;;;;;4.30;1.48;;;12.70;61.40;;;;;;5058027;28;20143;-70
2023/09/23 01:23:38;;;;;;;3.03;1.27;;;12.70;61.50;;;;;;5056116;28;20547;-69
2023/09/23 01:26:04;;;;;;;3.85;1.58;;;12.60;61.40;;;;;;5058748;28;20083;-70
2023/09/23 01:28:33;;;;;;;2.35;0.95;;;12.60;61.40;;;;;;5054473;28;20602;-69
2023/09/23 01:31:03;;;;;;;4.82;1.00;;;12.60;61.40;;;;;;5054459;28;20047;-70
2023/09/23 01:33:29;;;;;;;2.22;0.90;;;12.50;61.30;;;;;;5058462;28;20032;-69
2023/09/23 01:36:02;;;;;;;2.53;0.98;;;12.50;61.40;;;;;;5043577;28;20443;-70
2023/09/23 01:38:29;;;;;;;1.95;1.20;;;12.50;61.40;;;;;;5054142;28;20040;-69
2023/09/23 01:40:55;;;;;;;2.22;0.98;;;12.50;61.50;;;;;;5057762;28;20610;-69
2023/09/23 01:43:21;;;;;;;2.83;1.40;;;12.50;61.50;;;;;;5050062;28;20119;-70
2023/09/23 01:45:48;;;;;;;1.83;0.98;;;12.40;61.40;;;;;;5052826;28;20540;-72
2023/09/23 01:48:15;;;;;;;2.30;1.10;;;12.40;61.40;;;;;;5056875;28;20037;-71
2023/09/23 01:50:41;;;;;;;2.65;1.10;;;12.40;61.40;;;;;;5046644;28;20037;-72
2023/09/23 01:53:08;;;;;;;2.53;1.10;;;12.40;61.50;;;;;;5052344;28;20029;-70
2023/09/23 01:55:34;;;;;;;3.17;1.20;;;12.30;61.30;;;;;;5044575;28;20040;-71
2023/09/23 01:58:01;;;;;;;1.95;1.20;;;12.30;61.40;;;;;;5050136;28;20545;-73
2023/09/23 02:00:29;;;;;;;2.30;1.25;;;12.30;61.40;;;;;;5056287;28;20116;-72
2023/09/23 02:02:58;;;;;;;4.32;1.08;;;12.30;61.50;;;;;;5048653;28;20124;-72
2023/09/23 02:05:27;;;;;;;2.00;0.90;;;12.30;61.60;;;;;;5058428;28;20033;-71
2023/09/23 02:07:54;;;;;;;1.67;0.95;;;12.30;61.60;;;;;;5052902;28;20095;-70
2023/09/23 02:10:24;;;;;;;2.33;1.13;;;12.20;61.40;;;;;;5048185;28;20037;-70
2023/09/23 02:12:50;;;;;;;3.63;1.08;;;12.20;61.50;;;;;;5048410;28;20021;-73
2023/09/23 02:15:19;;;;;;;2.15;1.20;;;12.20;61.50;;;;;;5064220;28;20092;-73
2023/09/23 02:17:47;;;;;;;1.98;1.00;;;12.20;61.60;;;;;;5060469;28;20032;-73
2023/09/23 02:20:19;;;;;;;2.70;0.98;;;12.20;61.60;;;;;;5061293;28;20541;-73
2023/09/23 02:22:46;;;;;;;3.90;1.40;;;12.10;61.40;;;;;;5056740;28;20032;-73
2023/09/23 02:25:13;;;;;;;1.70;1.00;;;12.10;61.50;;;;;;5059323;28;20380;-74
2023/09/23 02:27:40;;;;;;;1.92;0.90;;;12.00;61.30;;;;;;5058873;28;20071;-73
2023/09/23 02:30:11;;;;;;;1.98;0.98;;;12.00;61.40;;;;;;5045678;28;20051;-74
2023/09/23 02:32:41;;;;;;;3.97;1.00;;;12.00;61.40;;;;;;5054493;28;20036;-72
2023/09/23 02:35:12;;;;;;;4.15;0.90;;;12.00;61.40;;;;;;5060932;28;20042;-73
2023/09/23 02:37:44;;;;;;;1.73;0.68;;;12.00;61.50;;;;;;5057889;28;20032;-70
2023/09/23 02:40:17;;;;;;;1.45;0.85;;;11.90;61.40;;;;;;5054584;28;20063;-71
2023/09/23 02:42:45;;;;;;;1.95;1.30;;;11.90;61.40;;;;;;5047759;28;20716;-69
2023/09/23 02:45:13;;;;;;;4.85;1.35;;;11.90;61.50;;;;;;5052267;28;20068;-69
2023/09/23 02:47:41;;;;;;;1.45;0.80;;;11.80;61.30;;;;;;5056479;28;20040;-72
2023/09/23 02:50:17;;;;;;;2.13;0.82;;;11.80;61.40;;;;;;5047967;28;20309;-70
2023/09/23 02:52:49;;;;;;;1.77;0.95;;;11.80;61.40;;;;;;5057127;28;20107;-69
2023/09/23 02:55:16;;;;;;;2.40;0.95;;;11.80;61.40;;;;;;5047084;28;20087;-69
2023/09/23 02:57:49;;;;;;;2.13;1.30;;;11.80;61.50;;;;;;5053019;28;20373;-70
2023/09/23 03:00:17;;;;;;;4.43;1.33;;;11.70;61.30;;;;;;5055369;28;20554;-71
2023/09/23 03:02:55;;;;;;;3.22;1.55;;;11.70;61.30;;;;;;5050084;28;20036;-69
2023/09/23 03:05:26;;;;;;;1.88;1.00;;;11.70;61.40;;;;;;5058891;28;20029;-69
2023/09/23 03:07:58;;;;;;;2.15;1.10;;;11.70;61.40;;;;;;5062642;28;20165;-69
2023/09/23 03:10:32;;;;;;;1.95;1.13;;;11.70;61.50;;;;;;5053966;28;20515;-68
2023/09/23 03:13:04;;;;;;;2.88;1.20;;;11.70;61.50;;;;;;5047334;28;20178;-68
2023/09/23 03:15:44;;;;;;;3.25;0.82;;;11.60;61.30;;;;;;5046453;28;20037;-69
2023/09/23 03:18:14;;;;;;;2.55;0.82;;;11.60;61.40;;;;;;5054890;28;20579;-68
2023/09/23 03:20:40;;;;;;;2.25;1.20;;;11.60;61.40;;;;;;5055646;28;20037;-69
2023/09/23 03:23:09;;;;;;;3.17;0.93;;;11.60;61.40;;;;;;5054718;28;20028;-68
2023/09/23 03:25:45;;;;;;;2.63;0.82;;;11.60;61.60;;;;;;5053167;28;20636;-69
2023/09/23 03:28:11;;;;;;;3.65;0.82;;;11.60;61.60;;;;;;5054555;28;20033;-70
2023/09/23 03:30:37;;;;;;;1.98;0.70;;;11.50;61.40;;;;;;5059289;28;20048;-69
2023/09/23 03:33:04;;;;;;;5.15;1.27;;;11.50;61.40;;;;;;5043440;28;20036;-69
2023/09/23 03:35:35;;;;;;;1.70;1.00;;;11.40;61.30;;;;;;5056611;28;20061;-70
2023/09/23 03:38:01;;;;;;;2.20;0.88;;;11.50;61.50;;;;;;5046565;28;20044;-69
2023/09/23 03:40:29;;;;;;;3.22;1.63;;;11.40;61.40;;;;;;5049968;28;20029;-68
2023/09/23 03:42:55;;;;;;;5.75;1.13;;;11.40;61.40;;;;;;5048701;28;20117;-70
2023/09/23 03:45:21;;;;;;;2.85;0.93;;;11.40;61.40;;;;;;5047753;28;20037;-71
2023/09/23 03:47:48;;;;;;;2.97;1.77;;;11.40;61.50;;;;;;5058324;28;20075;-70
2023/09/23 03:50:15;;;;;;;2.90;1.10;;;11.40;61.50;;;;;;5045444;28;20072;-73
2023/09/23 03:52:42;;;;;;;2.90;0.90;;;11.30;61.30;;;;;;5055650;28;20558;-71
2023/09/23 03:55:09;;;;;;;1.55;0.95;;;11.30;61.40;;;;;;5058672;28;20149;-73
2023/09/23 03:57:35;;;;;;;2.17;1.08;;;11.30;61.40;;;;;;5052234;28;20032;-70
2023/09/23 04:00:10;;;;;;;2.83;1.13;;;11.30;61.40;;;;;;5053925;28;20044;-70
2023/09/23 04:02:39;;;;;;;2.75;1.15;;;11.30;61.40;;;;;;5048769;28;20464;-68
2023/09/23 04:05:05;;;;;;;2.30;1.02;;;11.30;61.50;;;;;;5057302;28;20550;-68
2023/09/23 04:07:32;;;;;;;2.78;1.00;;;11.20;61.30;;;;;;5057035;28;20113;-68
2023/09/23 04:09:58;;;;;;;2.40;1.42;;;11.20;61.40;;;;;;5052497;28;20492;-68
2023/09/23 04:12:24;;;;;;;1.77;1.05;;;11.20;61.40;;;;;;5051542;28;20517;-70
2023/09/23 04:14:50;;;;;;;1.45;1.00;;;11.10;61.30;;;;;;5048741;28;20127;-71
2023/09/23 04:17:16;;;;;;;1.42;0.90;;;11.10;61.30;;;;;;5053923;28;20131;-72
2023/09/23 04:19:42;;;;;;;3.15;0.88;;;11.10;61.40;;;;;;5050139;28;20662;-69
2023/09/23 04:22:08;;;;;;;1.90;1.08;;;11.00;61.20;;;;;;5054088;28;20032;-69
2023/09/23 04:24:34;;;;;;;1.48;1.10;;;11.00;61.30;;;;;;5050028;28;20056;-69
2023/09/23 04:27:00;;;;;;;3.55;0.80;;;11.00;61.30;;;;;;5049484;28;20051;-72
2023/09/23 04:29:27;;;;;;;1.70;0.90;;;11.00;61.40;;;;;;5047161;28;20044;-73
2023/09/23 04:31:52;;;;;;;2.15;1.20;;;11.00;61.40;;;;;;5052749;28;20118;-71
2023/09/23 04:34:19;;;;;;;3.00;1.00;;;10.90;61.20;;;;;;5050772;28;20087;-72
2023/09/23 04:36:46;;;;;;;2.72;1.20;;;10.90;61.20;;;;;;5051957;28;20037;-70
2023/09/23 04:39:12;;;;;;;3.85;1.00;;;10.90;61.20;;;;;;5057850;28;20032;-71
2023/09/23 04:41:40;;;;;;;4.75;1.42;;;10.90;61.30;;;;;;5060024;28;20031;-68
2023/09/23 04:44:07;;;;;;;4.63;1.65;;;10.80;61.10;;;;;;5053312;28;20037;-72
2023/09/23 04:46:33;;;;;;;2.35;1.10;;;10.80;61.20;;;;;;5057590;28;20029;-70
2023/09/23 04:49:00;;;;;;;2.55;1.10;;;10.80;61.20;;;;;;5053076;28;20388;-70
2023/09/23 04:51:26;;;;;;;2.15;1.13;;;10.80;61.20;;;;;;5055321;28;20041;-72
2023/09/23 04:53:52;;;;;;;2.13;1.13;;;10.80;61.20;;;;;;5057693;28;20024;-70
2023/09/23 04:56:18;;;;;;;3.40;1.15;;;10.80;61.20;;;;;;5055022;28;20036;-69
2023/09/23 04:58:44;;;;;;;2.45;1.20;;;10.70;61.00;;;;;;5056108;28;20101;-70
2023/09/23 05:01:15;;;;;;;2.67;1.00;;;10.70;61.10;;;;;;5058571;28;20043;-69
2023/09/23 05:03:42;;;;;;;2.28;1.10;;;10.70;61.20;;;;;;5055711;28;20063;-70
2023/09/23 05:06:11;;;;;;;2.45;1.23;;;10.70;61.20;;;;;;5052779;28;20117;-70
2023/09/23 05:08:37;;;;;;;2.85;1.25;;;10.60;61.00;;;;;;5056985;28;20044;-70
2023/09/23 05:11:06;;;;;;;1.60;0.80;;;10.60;61.00;;;;;;5054437;28;20089;-69
2023/09/23 05:13:32;;;;;;;2.60;0.95;;;10.60;61.00;;;;;;5056185;28;20393;-70
2023/09/23 05:15:58;;;;;;;2.80;1.23;;;10.50;60.90;;;;;;5054654;28;20358;-70
2023/09/23 05:18:24;;;;;;;2.80;0.85;;;10.50;61.00;;;;;;5053300;28;20152;-70
2023/09/23 05:20:50;;;;;;;1.60;0.95;;;10.50;61.00;;;;;;5048756;28;20040;-70
2023/09/23 05:23:16;;;;;;;4.25;1.25;;;10.50;61.00;;;;;;5055580;28;20036;-70
2023/09/23 05:25:43;;;;;;;3.08;1.02;;;10.50;61.00;;;;;;5057268;28;20504;-69
2023/09/23 05:28:10;;;;;;;2.55;1.02;;;10.50;61.00;;;;;;5057414;28;20032;-69
2023/09/23 05:30:36;;;;;;;2.90;1.17;;;10.40;60.90;;;;;;5056811;28;20033;-70
2023/09/23 05:33:02;;;;;;;1.95;1.10;;;10.40;60.90;;;;;;5054641;28;20059;-69
2023/09/23 05:35:29;;;;;;;2.92;1.00;;;10.40;60.90;;;;;;5055651;28;20507;-70
2023/09/23 05:37:55;;;;;;;3.55;2.22;;;10.40;60.90;;;;;;5057564;28;20025;-70
2023/09/23 05:40:27;;;;;;;2.65;1.33;;;10.40;61.00;;;;;;5053833;28;20544;-69
2023/09/23 05:42:54;;;;;;;3.03;1.27;;;10.40;61.00;;;;;;5058197;28;20044;-70
2023/09/23 05:45:24;;;;;;;2.55;1.08;;;10.30;60.80;;;;;;5053547;28;20016;-69
2023/09/23 05:47:51;;;;;;;2.95;0.93;;;10.30;60.80;;;;;;5054904;28;20381;-70
2023/09/23 05:50:20;;;;;;;2.95;1.17;;;10.30;60.80;;;;;;5052206;28;20063;-68
2023/09/23 05:52:46;;;;;;;1.80;1.02;;;10.20;60.70;;;;;;5057459;28;20028;-68
2023/09/23 05:55:14;;;;;;;3.53;1.10;;;10.20;60.70;;;;;;5059242;28;20285;-69
2023/09/23 05:57:40;;;;;;;4.57;1.35;;;10.20;60.70;;;;;;5056921;28;20069;-68
2023/09/23 06:00:11;;;;;;;3.08;1.20;;;10.20;60.80;;;;;;5055928;28;20127;-73
2023/09/23 06:02:38;;;;;;;2.95;1.20;;;10.10;60.70;;;;;;5054071;28;20171;-69
2023/09/23 06:05:04;;;;;;;3.15;1.23;;;10.10;60.70;;;;;;5056597;28;20036;-72
2023/09/23 06:07:33;;;;;;;3.35;1.33;;;10.10;60.70;;;;;;5057629;28;20028;-71
2023/09/23 06:10:00;;;;;;;1.98;1.23;;;10.10;60.70;;;;;;5057971;28;20071;-71
2023/09/23 06:12:30;;;;;;;2.88;1.52;;;10.10;60.80;;;;;;5053788;28;20044;-70
2023/09/23 06:15:00;;;;;;;1.95;1.15;;;10.10;60.80;;;;;;5054010;28;20544;-69
2023/09/23 06:17:27;;;;;;;2.25;1.13;;;10.10;60.80;;;;;;5053598;28;20033;-69
2023/09/23 06:19:57;;;;;;;5.28;1.58;;;10.10;60.80;;;;;;5064005;28;20073;-71
2023/09/23 06:22:23;;;;;;;2.20;1.30;;;10.10;60.80;;;;;;5057580;28;20113;-69
2023/09/23 06:24:50;;;;;;;2.75;1.30;;;10.10;60.80;;;;;;5062122;28;20036;-72
2023/09/23 06:27:17;;;;;;;1.67;0.82;;;10.10;60.80;;;;;;5059734;28;20083;-71
2023/09/23 06:29:46;;;;;;;3.13;1.40;;;10.10;60.80;;;;;;5061455;28;20125;-68
2023/09/23 06:32:13;;;;;;;1.35;0.82;;;10.10;60.80;;;;;;5055378;28;20021;-68
2023/09/23 06:34:39;;;;;;;2.40;1.00;;;10.10;60.80;;;;;;5058567;28;20052;-68
2023/09/23 06:37:05;;;;;;;0.93;0.68;;;10.10;60.70;;;;;;5061939;28;20068;-68
2023/09/23 06:39:31;;;;;;;1.27;1.02;;;10.20;60.90;;;;;;5062382;28;20067;-71
2023/09/23 06:41:57;;;;;;;1.20;0.82;;;10.20;60.80;;;;;;5059631;28;20120;-69
2023/09/23 06:44:23;;;;;;;1.38;0.68;;;10.20;60.80;;;;;;5057112;28;20071;-70
2023/09/23 06:46:50;;;;;;;3.47;1.02;;;10.20;60.70;;;;;;5054302;28;20291;-71
2023/09/23 06:49:17;;;;;;;1.70;1.02;;;10.20;60.70;;;;;;5060435;28;20055;-69
2023/09/23 06:51:43;;;;;;;1.00;0.57;;;10.20;60.70;;;;;;5061418;28;20032;-69
2023/09/23 06:54:09;;;;;;;1.45;0.70;;;10.20;60.70;;;;;;5063502;28;20036;-69
2023/09/23 06:56:36;;;;;;;1.70;0.90;;;10.20;60.60;;;;;;5062664;28;20554;-68
2023/09/23 06:59:03;;;;;;;1.00;0.70;;;10.20;60.70;;;;;;5059318;28;20080;-70
2023/09/23 07:01:29;;;;;;;1.95;0.70;;;10.30;60.80;;;;;;5066266;28;20029;-70
2023/09/23 07:03:54;;;;;;;2.60;0.77;;;10.30;60.80;;;;;;5059878;28;20432;-70
2023/09/23 07:06:20;;;;;;;1.05;0.60;;;10.30;60.90;;;;;;5062072;28;20058;-70
2023/09/23 07:08:46;;;;;;;1.70;1.02;;;10.30;60.90;;;;;;5059499;28;20125;-68
2023/09/23 07:11:13;;;;;;;1.33;0.73;;;10.30;60.90;;;;;;5052982;28;20041;-69
2023/09/23 07:13:39;;;;;;;2.08;0.80;;;10.30;60.90;;;;;;5048512;28;20025;-69
2023/09/23 07:16:06;;;;;;;1.15;0.90;;;10.30;60.90;;;;;;5055647;28;20110;-70
2023/09/23 07:18:32;;;;;;;5.43;0.90;;;10.40;61.10;;;;;;5063134;28;20040;-69
2023/09/23 07:20:58;;;;;;;5.22;1.27;;;10.30;60.90;;;;;;5055693;28;20033;-69
2023/09/23 07:23:24;;;;;;;7.28;2.03;;;10.40;61.40;;;;;;5056054;28;20081;-69
2023/09/23 07:25:50;;;;;;;2.30;1.30;;;10.50;61.90;;;;;;5056609;28;20071;-69
2023/09/23 07:28:17;;;;;;;9.50;1.77;;;10.50;62.60;;;;;;5059025;28;20044;-69
2023/09/23 07:30:43;;;;;;;5.53;1.60;;;10.60;62.60;;;;;;5058304;28;20072;-71
2023/09/23 07:33:09;;;;;;;5.45;2.00;;;10.70;63.10;;;;;;5057851;28;20849;-69
2023/09/23 07:35:35;;;;;;;5.40;2.13;;;10.70;63.30;;;;;;5054900;28;20111;-69
2023/09/23 07:38:02;;;;;;;6.43;1.95;;;10.80;63.70;;;;;;5061868;28;20067;-69
2023/09/23 07:40:31;;;;;;;5.47;2.53;;;10.80;63.80;;;;;;5057343;28;20052;-69
2023/09/23 07:42:58;;;;;;;5.90;1.67;;;10.90;64.20;;;;;;5059282;28;20036;-68
2023/09/23 07:45:24;;;;;;;6.63;1.63;;;11.00;64.60;;;;;;5055406;28;20530;-68
2023/09/23 07:47:50;;;;;;;6.72;1.80;;;11.10;65.20;;;;;;5061955;28;20036;-69
2023/09/23 07:50:16;;;;;;;3.53;1.42;;;11.30;65.80;;;;;;5047364;28;20043;-69
2023/09/23 07:52:42;;;;;;;6.22;1.45;;;11.40;66.00;;;;;;5056086;28;20036;-70
2023/09/23 07:55:08;;;;;;;7.20;2.13;;;11.50;66.20;;;;;;5058226;28;20370;-69
2023/09/23 07:57:34;;;;;;;4.57;1.55;;;11.60;66.30;;;;;;5054839;28;20061;-69
2023/09/23 08:00:00;;;;;;;3.72;1.60;;;11.60;66.30;;;;;;5046579;28;20643;-69
2023/09/23 08:02:27;;;;;;;5.40;2.05;;;11.70;66.40;;;;;;5056055;28;20020;-69
2023/09/23 08:04:52;;;;;;;4.82;1.60;;;11.80;66.60;;;;;;5056092;28;20064;-70
2023/09/23 08:07:18;;;;;;;3.63;1.58;;;11.80;66.60;;;;;;5059510;28;20139;-69
2023/09/23 08:09:45;;;;;;;4.28;2.53;;;11.90;66.70;;;;;;5059116;28;20522;-70
2023/09/23 08:12:13;;;;;;;3.53;1.45;;;11.90;66.70;;;;;;5050951;28;20822;-69
2023/09/23 08:14:39;;;;;;;3.95;1.63;;;11.90;66.60;;;;;;5048219;28;20032;-69
2023/09/23 08:17:05;;;;;;;4.43;1.35;;;12.00;66.80;;;;;;5051439;28;20043;-73
2023/09/23 08:19:33;;;;;;;13.57;4.78;;;12.00;66.80;;;;;;5053843;28;20036;-70
2023/09/23 08:22:00;;;;;;;13.70;2.75;;;12.00;66.70;;;;;;5056548;28;20058;-70
2023/09/23 08:24:26;;;;;;;10.10;2.58;;;12.10;67.00;;;;;;5057027;28;20036;-70
2023/09/23 08:26:53;;;;;;;7.68;2.10;;;12.10;67.00;;;;;;5059677;28;20577;-70
2023/09/23 08:29:20;;;;;;;6.97;2.65;;;12.20;67.10;;;;;;5054820;28;20507;-70
2023/09/23 08:31:46;;;;;;;6.15;2.55;;;12.20;67.10;;;;;;5055041;28;20467;-70
2023/09/23 08:34:14;;;;;;;11.10;1.98;;;12.20;67.10;;;;;;5058590;28;20055;-70
2023/09/23 08:36:40;;;;;;;7.13;2.13;;;12.30;67.80;;;;;;5058498;28;20134;-69
2023/09/23 08:39:07;;;;;;;7.30;2.10;;;12.30;67.20;;;;;;5055608;28;20052;-70
2023/09/23 08:41:34;;;;;;;7.10;2.38;;;12.30;67.20;;;;;;5058852;28;20036;-70
2023/09/23 08:44:04;;;;;;;9.23;2.20;;;12.40;67.40;;;;;;5050676;28;20527;-70
2023/09/23 08:46:31;;;;;;;8.73;2.33;;;12.40;67.30;;;;;;5048473;28;20040;-70
2023/09/23 08:48:59;;;;;;;5.47;2.60;;;12.50;67.40;;;;;;5058069;28;20371;-70
2023/09/23 08:51:27;;;;;;;6.93;2.47;;;12.60;67.50;;;;;;5061753;28;20039;-70
2023/09/23 08:53:54;;;;;;;8.80;2.33;;;12.60;67.50;;;;;;5057188;28;20068;-70
2023/09/23 08:56:20;;;;;;;5.43;1.67;;;12.60;67.30;;;;;;5058475;28;20040;-70
2023/09/23 08:58:48;;;;;;;7.30;2.75;;;12.70;67.40;;;;;;5052161;28;20064;-70
2023/09/23 09:01:16;;;;;;;5.57;2.00;;;12.90;67.60;;;;;;5057306;28;20033;-70
2023/09/23 09:03:47;;;;;;;5.38;2.28;;;12.90;67.40;;;;;;5047707;28;20032;-70
2023/09/23 09:06:21;;;;;;;9.57;2.67;;;13.10;67.50;;;;;;5052095;28;20495;-70
2023/09/23 09:08:47;;;;;;;6.18;2.25;;;13.20;67.50;;;;;;5060224;28;20039;-71
2023/09/23 09:11:24;;;;;;;4.85;2.15;;;13.40;67.50;;;;;;5056695;28;20044;-70
2023/09/23 09:13:50;;;;;;;5.40;2.13;;;13.50;67.60;;;;;;5047951;28;20123;-69
2023/09/23 09:16:16;;;;;;;4.65;1.85;;;13.60;67.50;;;;;;5057946;28;20109;-72
2023/09/23 09:18:42;;;;;;;3.80;1.77;;;13.80;67.50;;;;;;5057429;28;20032;-69
2023/09/23 09:21:08;;;;;;;6.15;1.92;;;14.00;67.50;;;;;;5054544;28;20514;-71
2023/09/23 09:23:38;;;;;;;5.15;1.83;;;14.20;67.50;;;;;;5053162;28;20804;-73
2023/09/23 09:26:04;;;;;;;6.03;2.38;;;14.30;67.20;;;;;;5058181;28;20039;-69
2023/09/23 09:28:30;;;;;;;7.47;2.65;;;14.50;67.20;;;;;;5058221;28;20527;-70
2023/09/23 09:30:57;;;;;;;6.18;2.00;;;14.60;67.00;;;;;;5048298;28;20144;-70
2023/09/23 09:33:29;;;;;;;6.43;2.50;;;14.80;67.10;;;;;;5053839;28;20036;-70
2023/09/23 09:35:56;;;;;;;5.35;1.70;;;14.90;66.90;;;;;;5056075;28;20029;-69
2023/09/23 09:38:26;;;;;;;3.83;1.70;;;15.00;66.80;;;;;;5056676;28;20389;-72
2023/09/23 09:41:02;;;;;;;9.15;2.55;;;15.10;66.70;;;;;;5051368;28;20036;-69
2023/09/23 09:43:33;;;;;;;5.95;2.65;;;15.20;66.70;;;;;;5062413;28;20145;-70
2023/09/23 09:46:08;;;;;;;20.95;5.90;;;15.20;66.60;;;;;;5058123;28;20452;-70
2023/09/23 09:48:38;;;;;;;28.27;6.57;;;15.20;66.70;;;;;;5058688;28;20286;-70
2023/09/23 09:51:06;;;;;;;28.92;7.95;;;15.30;67.00;;;;;;5060733;28;20119;-69
2023/09/23 09:53:36;;;;;;;20.80;5.75;;;15.30;67.00;;;;;;5061185;28;20500;-69
2023/09/23 09:56:04;;;;;;;20.90;5.70;;;15.40;67.30;;;;;;5060032;28;20044;-69
2023/09/23 09:58:38;;;;;;;19.42;5.10;;;15.40;67.20;;;;;;5061245;28;20105;-70
2023/09/23 10:01:08;;;;;;;20.80;4.05;;;15.50;67.20;;;;;;5055834;28;20033;-69
2023/09/23 10:03:36;;;;;;;12.48;3.58;;;15.50;67.10;;;;;;5059948;28;20060;-69
2023/09/23 10:06:02;;;;;;;16.88;5.10;;;15.50;66.90;;;;;;5061237;28;20392;-69
2023/09/23 10:08:36;;;;;;;14.13;4.05;;;15.50;66.80;;;;;;5063681;28;20036;-70
2023/09/23 10:11:05;;;;;;;14.52;4.75;;;15.50;66.70;;;;;;5051885;28;20044;-69
2023/09/23 10:13:36;;;;;;;17.95;3.95;;;15.50;66.70;;;;;;5056509;28;20021;-70
2023/09/23 10:16:12;;;;;;;11.75;3.33;;;15.60;66.80;;;;;;5056249;28;20082;-70
2023/09/23 10:18:42;;;;;;;13.07;4.07;;;15.60;66.70;;;;;;5060681;28;20145;-69
2023/09/23 10:21:20;;;;;;;11.98;2.70;;;15.60;66.50;;;;;;5057911;28;20036;-69
2023/09/23 10:23:46;;;;;;;10.75;3.15;;;15.60;66.40;;;;;;5053686;28;20446;-70
2023/09/23 10:26:13;;;;;;;8.63;2.65;;;15.80;66.50;;;;;;5057382;28;20036;-70
2023/09/23 10:28:40;;;;;;;11.25;3.20;;;15.90;66.50;;;;;;5065128;28;20348;-70
2023/09/23 10:31:10;;;;;;;10.68;3.47;;;15.90;66.10;;;;;;5053707;28;20560;-69
2023/09/23 10:33:37;;;;;;;10.55;3.03;;;16.00;66.50;;;;;;5062288;28;20033;-70
2023/09/23 10:36:04;;;;;;;9.15;3.22;;;16.20;65.90;;;;;;5054141;28;20259;-69
2023/09/23 10:38:34;;;;;;;9.02;2.88;;;16.30;65.80;;;;;;5056168;28;20035;-70
2023/09/23 10:41:02;;;;;;;7.43;2.42;;;16.40;65.50;;;;;;5056370;28;20055;-70
2023/09/23 10:43:29;;;;;;;5.47;2.03;;;16.50;65.30;;;;;;5059388;28;20039;-69
2023/09/23 10:45:58;;;;;;;5.45;1.95;;;16.70;65.10;;;;;;5053540;28;20184;-70
2023/09/23 10:48:26;;;;;;;8.20;3.30;;;16.70;64.60;;;;;;5054144;28;20093;-70
2023/09/23 10:50:52;;;;;;;9.13;3.30;;;16.80;64.30;;;;;;5057244;28;20040;-70
2023/09/23 10:53:21;;;;;;;7.90;2.70;;;16.90;64.10;;;;;;5059178;28;20283;-70
2023/09/23 10:55:51;;;;;;;8.18;3.60;;;16.90;63.80;;;;;;5057867;28;20093;-69
2023/09/23 10:58:21;;;;;;;5.57;2.40;;;17.10;63.70;;;;;;5057629;28;20047;-70
2023/09/23 11:00:48;;;;;;;7.35;2.35;;;17.20;64.00;;;;;;5055842;28;20303;-69
2023/09/23 11:03:19;;;;;;;5.32;1.92;;;17.30;63.10;;;;;;5054249;28;20446;-70
2023/09/23 11:05:47;;;;;;;5.65;2.22;;;17.40;62.70;;;;;;5054970;28;20090;-69
2023/09/23 11:08:15;;;;;;;11.57;6.47;;;17.40;62.40;;;;;;5057833;28;20276;-70
2023/09/23 11:10:43;;;;;;;8.85;5.45;;;17.40;62.20;;;;;;5056519;28;20036;-69
2023/09/23 11:13:10;;;;;;;8.48;3.63;;;17.50;62.60;;;;;;5047789;28;20526;-71
2023/09/23 11:15:38;;;;;;;8.10;4.18;;;17.60;62.80;;;;;;5056137;28;20115;-70
2023/09/23 11:18:08;;;;;;;10.18;3.13;;;17.60;62.50;;;;;;5056078;28;20550;-68
2023/09/23 11:20:37;;;;;;;9.32;3.45;;;17.80;62.70;;;;;;5051417;28;20033;-69
2023/09/23 11:23:05;;;;;;;18.88;4.80;;;18.00;63.10;;;;;;5058228;28;20128;-70
2023/09/23 11:25:39;;;;;;;19.88;6.40;;;18.20;63.40;;;;;;5056944;28;20195;-69
2023/09/23 11:28:05;;;;;;;24.85;7.03;;;18.40;63.90;;;;;;5055197;28;20024;-69
2023/09/23 11:30:32;;;;;;;23.33;7.15;;;18.60;64.20;;;;;;5051473;28;20325;-69
2023/09/23 11:32:58;;;;;;;26.25;8.32;;;18.70;64.40;;;;;;5054420;28;20028;-69
2023/09/23 11:35:23;;;;;;;23.60;7.85;;;18.90;64.90;;;;;;5062379;28;20040;-69
2023/09/23 11:37:51;;;;;;;18.23;5.60;;;19.00;65.10;;;;;;5051555;28;20028;-68
2023/09/23 11:40:19;;;;;;;16.13;5.20;;;19.10;65.30;;;;;;5055499;28;20047;-69
2023/09/23 11:42:48;;;;;;;12.43;4.03;;;19.20;65.90;;;;;;5056046;28;20115;-70
2023/09/23 11:45:14;;;;;;;8.93;3.97;;;19.30;65.40;;;;;;5054891;28;20215;-70
2023/09/23 11:47:40;;;;;;;14.32;4.53;;;19.40;65.30;;;;;;5057833;28;20200;-69
2023/09/23 11:50:07;;;;;;;13.60;4.63;;;19.50;65.00;;;;;;5054110;28;20512;-69
2023/09/23 11:52:34;;;;;;;10.77;3.03;;;19.60;65.30;;;;;;5053535;28;20656;-69
2023/09/23 11:55:00;;;;;;;10.05;3.22;;;19.70;64.60;;;;;;5060553;28;20024;-69
2023/09/23 11:57:26;;;;;;;13.35;4.90;;;19.70;64.30;;;;;;5056248;28;20444;-69
2023/09/23 11:59:52;;;;;;;9.70;3.25;;;19.70;64.10;;;;;;5057951;28;20052;-69
2023/09/23 12:02:21;;;;;;;11.77;4.00;;;19.70;64.10;;;;;;5057638;28;20974;-69
2023/09/23 12:04:48;;;;;;;9.32;3.17;;;19.70;64.00;;;;;;5052124;28;20540;-69
2023/09/23 12:07:15;;;;;;;8.27;3.35;;;19.70;64.00;;;;;;5054129;28;20082;-68
2023/09/23 12:09:41;;;;;;;10.90;3.20;;;19.70;63.90;;;;;;5056461;28;20806;-69
2023/09/23 12:12:10;;;;;;;8.52;2.90;;;19.70;63.80;;;;;;5059249;28;20113;-69
2023/09/23 12:14:37;;;;;;;8.05;2.58;;;19.90;64.00;;;;;;5052631;28;20742;-69
2023/09/23 12:17:03;;;;;;;9.63;3.33;;;20.00;63.70;;;;;;5056652;28;20024;-69
2023/09/23 12:19:29;;;;;;;8.63;3.10;;;20.10;63.60;;;;;;5057530;28;20041;-69
2023/09/23 12:21:55;;;;;;;5.05;2.22;;;20.20;63.50;;;;;;5060683;28;20477;-69
2023/09/23 12:24:21;;;;;;;9.18;3.15;;;20.30;63.20;;;;;;5058392;28;20024;-68
2023/09/23 12:26:47;;;;;;;7.28;2.80;;;20.30;62.90;;;;;;5062696;28;20043;-69
2023/09/23 12:29:16;;;;;;;8.90;3.65;;;20.30;62.70;;;;;;5056055;28;20044;-69
2023/09/23 12:31:42;;;;;;;5.97;2.53;;;20.30;62.80;;;;;;5055124;28;20043;-68
2023/09/23 12:34:11;;;;;;;10.30;3.35;;;20.30;62.60;;;;;;5057639;28;20393;-69
2023/09/23 12:36:37;;;;;;;8.50;3.55;;;20.30;62.50;;;;;;5059055;28;20126;-68
2023/09/23 12:39:03;;;;;;;10.32;3.80;;;20.20;62.30;;;;;;5057937;28;20032;-69
2023/09/23 12:41:29;;;;;;;5.75;2.40;;;20.20;62.30;;;;;;5060304;28;20032;-70
2023/09/23 12:43:57;;;;;;;8.15;3.13;;;20.20;62.30;;;;;;5055520;28;20591;-69
2023/09/23 12:46:22;;;;;;;8.68;3.47;;;20.20;62.20;;;;;;5049715;28;20059;-72